TimeEDT,TemperatureF,Dew PointF,Humidity,Sea Level PressureIn,VisibilityMPH,Wind Direction,Wind SpeedMPH,Gust SpeedMPH,PrecipitationIn,Events,Conditions,WindDirDegrees,DateUTC
12:44 AM,71.6,69.8,94,29.71,3.0,Calm,Calm,-,N/A,,Clear,0,2013-09-13 04:44:00
12:54 AM,71.1,70.0,96,29.71,3.0,Calm,Calm,-,N/A,,Clear,0,2013-09-13 04:54:00
1:16 AM,71.6,71.6,100,29.70,3.0,Calm,Calm,-,N/A,,Partly Cloudy,0,2013-09-13 05:16:00
1:54 AM,71.1,71.1,100,29.70,4.0,WSW,5.8,-,N/A,,Mostly Cloudy,250,2013-09-13 05:54:00
2:03 AM,71.6,71.6,100,29.70,4.0,WSW,5.8,-,N/A,,Overcast,240,2013-09-13 06:03:00
2:32 AM,71.6,69.8,94,29.69,4.0,WSW,3.5,-,N/A,,Scattered Clouds,240,2013-09-13 06:32:00
2:54 AM,71.1,70.0,96,29.68,4.0,WSW,3.5,-,N/A,,Mostly Cloudy,250,2013-09-13 06:54:00
3:18 AM,71.6,69.8,94,29.68,4.0,Calm,Calm,-,N/A,,Mostly Cloudy,0,2013-09-13 07:18:00
3:54 AM,71.1,70.0,96,29.67,5.0,West,4.6,-,N/A,,Mostly Cloudy,270,2013-09-13 07:54:00
4:04 AM,71.6,69.8,94,29.68,5.0,West,5.8,-,N/A,,Mostly Cloudy,270,2013-09-13 08:04:00
4:12 AM,69.8,69.8,100,29.68,6.0,West,5.8,-,N/A,,Mostly Cloudy,270,2013-09-13 08:12:00
4:51 AM,69.8,69.8,100,29.68,5.0,West,3.5,-,N/A,,Mostly Cloudy,280,2013-09-13 08:51:00
4:54 AM,70.0,70.0,100,29.68,4.0,West,4.6,-,N/A,,Mostly Cloudy,280,2013-09-13 08:54:00
5:29 AM,69.8,69.8,100,29.68,3.0,West,4.6,-,N/A,,Mostly Cloudy,270,2013-09-13 09:29:00
5:54 AM,70.0,69.1,97,29.68,3.0,West,4.6,-,N/A,,Mostly Cloudy,280,2013-09-13 09:54:00
6:54 AM,68.0,66.9,96,29.69,2.0,West,3.5,-,N/A,,Clear,280,2013-09-13 10:54:00
7:20 AM,69.8,66.2,88,29.70,4.0,NW,8.1,-,N/A,,Partly Cloudy,310,2013-09-13 11:20:00
7:54 AM,69.1,66.9,93,29.70,4.0,WNW,5.8,-,N/A,,Clear,300,2013-09-13 11:54:00
8:54 AM,70.0,66.9,90,29.70,4.0,NW,5.8,-,N/A,,Partly Cloudy,320,2013-09-13 12:54:00
9:54 AM,71.1,66.0,84,29.72,9.0,NNW,8.1,-,N/A,,Scattered Clouds,330,2013-09-13 13:54:00
10:14 AM,71.6,66.2,83,29.73,9.0,NW,6.9,-,N/A,,Mostly Cloudy,320,2013-09-13 14:14:00
10:54 AM,71.1,64.0,78,29.73,10.0,NW,11.5,-,N/A,,Mostly Cloudy,310,2013-09-13 14:54:00
11:01 AM,71.6,64.4,78,29.74,10.0,NW,9.2,-,N/A,,Mostly Cloudy,310,2013-09-13 15:01:00
11:28 AM,71.6,62.6,73,29.74,10.0,NW,11.5,-,N/A,,Overcast,310,2013-09-13 15:28:00
11:54 AM,70.0,60.1,71,29.74,10.0,NNW,12.7,20.7,N/A,,Scattered Clouds,340,2013-09-13 15:54:00
12:54 PM,72.0,59.0,64,29.74,10.0,NNW,13.8,21.9,N/A,,Mostly Cloudy,340,2013-09-13 16:54:00
1:54 PM,75.0,59.0,57,29.73,10.0,WNW,15.0,23.0,N/A,,Scattered Clouds,300,2013-09-13 17:54:00
2:54 PM,77.0,55.9,48,29.72,10.0,WNW,17.3,24.2,N/A,,Partly Cloudy,300,2013-09-13 18:54:00
3:54 PM,78.1,54.0,43,29.72,10.0,WNW,12.7,21.9,N/A,,Clear,300,2013-09-13 19:54:00
4:54 PM,73.9,54.0,50,29.73,10.0,NW,8.1,-,N/A,,Partly Cloudy,310,2013-09-13 20:54:00
5:54 PM,73.9,55.0,52,29.75,10.0,NW,10.4,-,N/A,,Partly Cloudy,320,2013-09-13 21:54:00
6:54 PM,71.1,52.0,51,29.77,10.0,NW,6.9,-,N/A,,Mostly Cloudy,320,2013-09-13 22:54:00
7:54 PM,66.9,54.0,63,29.81,10.0,NW,4.6,-,N/A,,Clear,320,2013-09-13 23:54:00
8:54 PM,63.0,55.0,75,29.83,10.0,NNW,3.5,-,N/A,,Clear,340,2013-09-14 00:54:00
9:54 PM,63.0,53.1,70,29.85,10.0,Calm,Calm,-,N/A,,Clear,0,2013-09-14 01:54:00
10:54 PM,61.0,53.1,75,29.87,10.0,NW,3.5,-,N/A,,Clear,310,2013-09-14 02:54:00
11:54 PM,60.1,52.0,75,29.88,10.0,NNW,6.9,-,N/A,,Clear,340,2013-09-14 03:54:00